Time;durP1;ratioP1;P1;durP2;ratioP2;P2;SDS_P1;SDS_P2;PMS_P1;PMS_P2;Temp;Humidity;BMP_temperature;BMP_pressure;BME280_temperature;BME280_humidity;BME280_pressure;Samples;Min_cycle;Max_cycle;Signal;HPM_P1;HPM_P2
2023/03/31 00:02:14;;;;;;;4.90;1.08;;;10.00;99.90;;;;;;5024605;28;20108;-64
2023/03/31 00:04:44;;;;;;;5.53;1.15;;;10.00;99.90;;;;;;5026148;28;20112;-64
2023/03/31 00:07:12;;;;;;;2.88;1.00;;;10.10;99.90;;;;;;5026577;28;20030;-66
2023/03/31 00:09:39;;;;;;;2.38;0.80;;;10.10;99.90;;;;;;5027992;28;20072;-65
2023/03/31 00:12:05;;;;;;;4.85;1.10;;;10.10;99.90;;;;;;5025193;28;20033;-66
2023/03/31 00:14:31;;;;;;;4.70;1.05;;;10.10;99.90;;;;;;5029060;28;20407;-66
2023/03/31 00:16:57;;;;;;;4.50;1.48;;;10.10;99.90;;;;;;5025504;28;20057;-64
2023/03/31 00:19:23;;;;;;;3.33;0.85;;;10.20;99.90;;;;;;5019389;28;20061;-67
2023/03/31 00:21:50;;;;;;;7.05;1.42;;;10.10;99.90;;;;;;5017445;28;20209;-65
2023/03/31 00:24:16;;;;;;;1.60;0.70;;;10.10;99.90;;;;;;5021026;28;20400;-66
2023/03/31 00:26:42;;;;;;;5.53;0.85;;;10.10;99.90;;;;;;5022495;28;20045;-65
2023/03/31 00:29:10;;;;;;;4.53;1.15;;;10.10;99.90;;;;;;5016954;28;20040;-65
2023/03/31 00:31:37;;;;;;;5.45;1.23;;;10.10;99.90;;;;;;5028379;28;20057;-65
2023/03/31 00:34:03;;;;;;;2.78;0.82;;;10.10;99.90;;;;;;5006524;28;20470;-65
2023/03/31 00:36:29;;;;;;;3.15;1.30;;;10.00;99.90;;;;;;5019682;28;20026;-66
2023/03/31 00:39:07;;;;;;;6.38;1.10;;;10.00;99.90;;;;;;5015937;28;20030;-65
2023/03/31 00:41:34;;;;;;;9.05;2.00;;;10.00;99.90;;;;;;5024643;28;20017;-64
2023/03/31 00:44:17;;;;;;;4.00;0.95;;;10.00;99.90;;;;;;5025103;28;20029;-66
2023/03/31 00:46:45;;;;;;;2.75;0.80;;;10.00;99.90;;;;;;5027244;28;20091;-66
2023/03/31 00:49:32;;;;;;;5.13;1.08;;;9.90;99.90;;;;;;5023466;28;20042;-66
2023/03/31 00:52:07;;;;;;;6.50;1.30;;;9.90;99.90;;;;;;5019408;28;20033;-65
2023/03/31 00:54:34;;;;;;;5.53;1.00;;;9.90;99.90;;;;;;5028791;28;20080;-65
2023/03/31 00:57:02;;;;;;;5.90;1.30;;;9.90;99.90;;;;;;5025791;28;20616;-66
2023/03/31 00:59:30;;;;;;;2.17;0.82;;;9.90;99.90;;;;;;5028613;28;20064;-66
2023/03/31 01:02:01;;;;;;;6.28;0.82;;;9.90;99.90;;;;;;5028620;28;20041;-66
2023/03/31 01:04:33;;;;;;;3.45;0.82;;;9.90;99.90;;;;;;5029010;28;20053;-64
2023/03/31 01:07:21;;;;;;;10.75;1.17;;;9.90;99.90;;;;;;5027787;28;20029;-64
2023/03/31 01:09:49;;;;;;;2.20;0.85;;;9.80;99.90;;;;;;5024072;28;20052;-66
2023/03/31 01:12:17;;;;;;;2.38;1.20;;;9.80;99.90;;;;;;5027267;28;20025;-65
2023/03/31 01:14:42;;;;;;;4.90;0.82;;;9.70;99.90;;;;;;5026164;28;20021;-65
2023/03/31 01:17:09;;;;;;;6.05;0.95;;;9.70;99.90;;;;;;5022138;28;20080;-65
2023/03/31 01:19:45;;;;;;;1.00;0.70;;;9.60;99.90;;;;;;5029076;28;20036;-64
2023/03/31 01:22:38;;;;;;;2.33;1.00;;;9.50;99.90;;;;;;5026348;28;21421;-65
2023/03/31 01:25:32;;;;;;;3.13;0.80;;;9.40;99.90;;;;;;5026787;28;20096;-66
2023/03/31 01:28:07;;;;;;;7.60;1.25;;;9.30;99.90;;;;;;5027696;28;20395;-64
2023/03/31 01:30:43;;;;;;;2.58;0.60;;;9.30;99.90;;;;;;5030827;28;20120;-65
2023/03/31 01:33:15;;;;;;;11.20;1.52;;;9.30;99.90;;;;;;5028376;28;20060;-64
2023/03/31 01:36:07;;;;;;;9.40;1.55;;;9.40;99.90;;;;;;5009048;28;20558;-66
2023/03/31 01:38:50;;;;;;;5.43;0.73;;;9.40;99.90;;;;;;5019474;28;20049;-64
2023/03/31 01:41:19;;;;;;;7.53;0.77;;;9.40;99.90;;;;;;5016719;28;20029;-66
2023/03/31 01:44:07;;;;;;;3.65;0.65;;;9.50;99.90;;;;;;5018650;28;20034;-64
2023/03/31 01:46:59;;;;;;;4.55;0.90;;;9.50;99.90;;;;;;5028812;28;20018;-66
2023/03/31 01:50:06;;;;;;;6.47;1.15;;;9.50;99.90;;;;;;5025750;28;20037;-65
2023/03/31 01:52:45;;;;;;;8.15;1.13;;;9.60;99.90;;;;;;5027836;28;20041;-64
2023/03/31 01:55:14;;;;;;;3.25;0.75;;;9.70;99.90;;;;;;5030609;28;20039;-66
2023/03/31 01:57:49;;;;;;;1.65;0.77;;;9.70;99.90;;;;;;5025628;28;20025;-65
2023/03/31 02:00:18;;;;;;;3.13;0.80;;;9.70;99.90;;;;;;5031145;28;20026;-65
2023/03/31 02:02:52;;;;;;;2.38;0.90;;;9.70;99.90;;;;;;5030900;28;20427;-66
2023/03/31 02:05:24;;;;;;;3.13;0.88;;;9.80;99.90;;;;;;4993132;28;20098;-67
2023/03/31 02:08:02;;;;;;;3.97;0.82;;;9.80;99.90;;;;;;5022487;28;20037;-63
2023/03/31 02:10:30;;;;;;;9.60;1.08;;;9.80;99.90;;;;;;5026201;28;20025;-65
2023/03/31 02:12:58;;;;;;;2.72;0.63;;;9.90;99.90;;;;;;5026851;28;20033;-66
2023/03/31 02:15:28;;;;;;;6.07;1.30;;;9.90;99.90;;;;;;5025632;28;20036;-66
2023/03/31 02:17:57;;;;;;;9.32;2.28;;;9.90;99.90;;;;;;5022284;28;20026;-66
2023/03/31 02:20:26;;;;;;;11.73;1.30;;;9.90;99.90;;;;;;5014277;28;20033;-63
2023/03/31 02:22:55;;;;;;;9.13;1.20;;;9.90;99.90;;;;;;5023443;28;20091;-64
2023/03/31 02:25:30;;;;;;;5.72;1.10;;;10.00;99.90;;;;;;5027460;28;20070;-64
2023/03/31 02:28:02;;;;;;;8.73;2.20;;;10.00;99.90;;;;;;5025502;28;20080;-66
2023/03/31 02:30:42;;;;;;;8.18;1.38;;;10.00;99.90;;;;;;5026553;28;20510;-67
2023/03/31 02:33:08;;;;;;;15.02;1.92;;;10.00;99.90;;;;;;5024769;28;20088;-66
2023/03/31 02:35:35;;;;;;;11.75;1.60;;;10.00;99.90;;;;;;5008552;28;20038;-66
2023/03/31 02:38:01;;;;;;;8.10;2.20;;;10.00;99.90;;;;;;5021292;28;20021;-66
2023/03/31 02:40:27;;;;;;;3.65;1.20;;;10.00;99.90;;;;;;5030465;28;20021;-64
2023/03/31 02:42:52;;;;;;;9.43;1.45;;;10.00;99.90;;;;;;5027890;28;20013;-67
2023/03/31 02:45:40;;;;;;;13.05;1.33;;;10.00;99.90;;;;;;5026975;28;20030;-66
2023/03/31 02:48:10;;;;;;;4.57;1.17;;;10.00;99.90;;;;;;5021163;28;20030;-65
2023/03/31 02:51:07;;;;;;;12.93;1.75;;;10.00;99.90;;;;;;5025012;28;20037;-64
2023/03/31 02:53:56;;;;;;;13.00;1.85;;;9.90;99.90;;;;;;5026475;28;20022;-65
2023/03/31 02:56:44;;;;;;;5.70;1.45;;;9.90;99.90;;;;;;5026553;28;20030;-66
2023/03/31 02:59:27;;;;;;;10.40;1.80;;;9.90;99.90;;;;;;5029395;28;20041;-66
2023/03/31 03:02:24;;;;;;;8.10;1.40;;;9.90;99.90;;;;;;5021794;28;20025;-67
2023/03/31 03:05:39;;;;;;;8.05;2.13;;;9.80;99.90;;;;;;5026489;28;20095;-65
2023/03/31 03:08:10;;;;;;;12.00;1.58;;;9.80;99.90;;;;;;5022413;28;20131;-65
2023/03/31 03:10:54;;;;;;;7.05;1.00;;;9.80;99.90;;;;;;5027164;28;20048;-65
2023/03/31 03:13:41;;;;;;;8.68;1.90;;;9.80;99.90;;;;;;5030752;28;20037;-66
2023/03/31 03:16:18;;;;;;;9.05;1.05;;;9.80;99.90;;;;;;5022956;28;20387;-66
2023/03/31 03:18:51;;;;;;;4.95;1.15;;;9.70;99.90;;;;;;5026680;28;20032;-65
2023/03/31 03:21:17;;;;;;;6.50;1.30;;;9.70;99.90;;;;;;5027708;28;20025;-66
2023/03/31 03:23:42;;;;;;;9.93;1.70;;;9.60;99.90;;;;;;5024367;28;20037;-67
2023/03/31 03:26:08;;;;;;;9.75;1.80;;;9.60;99.90;;;;;;5026089;28;20033;-66
2023/03/31 03:28:34;;;;;;;6.60;1.27;;;9.60;99.90;;;;;;5020101;28;20076;-66
2023/03/31 03:30:59;;;;;;;8.50;1.20;;;9.60;99.90;;;;;;5026453;28;20368;-66
2023/03/31 03:33:25;;;;;;;12.32;1.35;;;9.60;99.90;;;;;;5025867;28;20030;-65
2023/03/31 03:35:50;;;;;;;10.18;1.10;;;9.60;99.90;;;;;;5006248;28;20038;-67
2023/03/31 03:38:16;;;;;;;3.50;1.08;;;9.60;99.90;;;;;;5027791;28;20483;-64
2023/03/31 03:40:42;;;;;;;10.18;1.80;;;9.60;99.90;;;;;;5027558;28;20120;-66
2023/03/31 03:43:07;;;;;;;14.25;2.17;;;9.60;99.90;;;;;;5027443;28;20029;-66
2023/03/31 03:45:33;;;;;;;6.05;1.95;;;9.70;99.90;;;;;;5030056;28;20391;-65
2023/03/31 03:47:58;;;;;;;7.85;1.20;;;9.70;99.90;;;;;;5022172;28;20034;-66
2023/03/31 03:50:24;;;;;;;9.75;1.90;;;9.70;99.90;;;;;;5027271;28;20025;-67
2023/03/31 03:52:49;;;;;;;17.50;2.30;;;9.70;99.90;;;;;;5025098;28;20053;-65
2023/03/31 03:55:16;;;;;;;6.60;1.58;;;9.70;99.90;;;;;;5023035;28;20057;-66
2023/03/31 03:57:42;;;;;;;12.43;2.05;;;9.70;99.90;;;;;;5023693;28;20018;-64
2023/03/31 04:00:11;;;;;;;5.63;1.25;;;9.70;99.90;;;;;;5026806;28;20100;-66
2023/03/31 04:02:37;;;;;;;13.57;1.77;;;9.70;99.90;;;;;;5028527;28;20030;-66
2023/03/31 04:05:03;;;;;;;9.60;1.23;;;9.60;99.90;;;;;;5030894;28;20112;-67
2023/03/31 04:07:29;;;;;;;10.27;1.35;;;9.70;99.90;;;;;;5003193;28;20045;-67
2023/03/31 04:09:55;;;;;;;10.05;1.98;;;9.60;99.90;;;;;;5028185;28;20068;-67
2023/03/31 04:12:20;;;;;;;10.73;1.63;;;9.70;99.90;;;;;;5028651;28;20033;-65
2023/03/31 04:14:46;;;;;;;3.75;1.17;;;9.70;99.90;;;;;;5029755;28;20030;-64
2023/03/31 04:17:14;;;;;;;12.52;1.50;;;9.70;99.90;;;;;;5028332;28;20025;-66
2023/03/31 04:19:41;;;;;;;6.55;1.40;;;9.70;99.90;;;;;;5024887;28;20079;-66
2023/03/31 04:22:10;;;;;;;7.40;1.20;;;9.70;99.90;;;;;;5025656;28;20022;-65
2023/03/31 04:24:37;;;;;;;8.45;1.25;;;9.70;99.90;;;;;;5026729;28;20037;-66
2023/03/31 04:27:06;;;;;;;6.90;1.40;;;9.70;99.90;;;;;;5024202;28;20026;-67
2023/03/31 04:29:32;;;;;;;5.07;1.23;;;9.70;99.90;;;;;;5027818;28;20105;-66
2023/03/31 04:31:59;;;;;;;10.88;1.55;;;9.80;99.90;;;;;;5027556;28;20064;-65
2023/03/31 04:34:33;;;;;;;9.88;1.08;;;9.70;99.90;;;;;;5005120;28;20065;-67
2023/03/31 04:37:01;;;;;;;7.60;1.10;;;9.70;99.90;;;;;;5024957;28;20392;-65
2023/03/31 04:39:29;;;;;;;8.85;1.45;;;9.70;99.90;;;;;;5028262;28;20364;-65
2023/03/31 04:41:56;;;;;;;6.13;1.35;;;9.70;99.90;;;;;;5031768;28;20026;-66
2023/03/31 04:44:22;;;;;;;5.30;1.23;;;9.70;99.90;;;;;;5030879;28;20397;-64
2023/03/31 04:46:47;;;;;;;5.72;1.17;;;9.70;99.90;;;;;;5032709;28;20033;-66
2023/03/31 04:49:14;;;;;;;5.78;1.27;;;9.70;99.90;;;;;;5030104;28;20025;-66
2023/03/31 04:51:39;;;;;;;3.53;0.85;;;9.70;99.90;;;;;;5027541;28;20065;-65
2023/03/31 04:54:05;;;;;;;7.47;2.28;;;9.60;99.90;;;;;;5031162;28;20064;-67
2023/03/31 04:56:31;;;;;;;4.82;1.27;;;9.60;99.90;;;;;;5031753;28;20378;-66
2023/03/31 04:58:56;;;;;;;3.70;1.00;;;9.60;99.90;;;;;;5033266;28;20017;-66
2023/03/31 05:01:22;;;;;;;4.97;1.73;;;9.50;99.90;;;;;;5029876;28;20020;-66
2023/03/31 05:03:47;;;;;;;8.25;1.30;;;9.60;99.90;;;;;;5031027;28;20057;-65
2023/03/31 05:06:14;;;;;;;8.02;1.00;;;9.50;99.90;;;;;;5001540;28;20061;-65
2023/03/31 05:08:40;;;;;;;3.28;1.10;;;9.50;99.90;;;;;;5026513;28;20084;-66
2023/03/31 05:11:06;;;;;;;6.15;1.60;;;9.40;99.90;;;;;;5030721;28;20029;-66
2023/03/31 05:13:32;;;;;;;4.53;1.20;;;9.40;99.90;;;;;;5024583;28;20033;-65
2023/03/31 05:15:57;;;;;;;3.75;0.98;;;9.30;99.90;;;;;;5029376;28;20024;-65
2023/03/31 05:18:23;;;;;;;1.80;0.80;;;9.30;99.90;;;;;;5021306;28;20075;-64
2023/03/31 05:20:48;;;;;;;9.30;0.80;;;9.40;99.90;;;;;;5029585;28;20391;-64
2023/03/31 05:23:14;;;;;;;4.72;0.82;;;9.40;99.90;;;;;;5024271;28;20025;-65
2023/03/31 05:25:41;;;;;;;5.45;1.02;;;9.40;99.90;;;;;;5035974;28;20029;-65
2023/03/31 05:28:08;;;;;;;8.13;0.93;;;9.40;99.90;;;;;;5032203;28;20394;-64
2023/03/31 05:30:34;;;;;;;5.47;1.17;;;9.40;99.90;;;;;;5034202;28;20017;-64
2023/03/31 05:33:00;;;;;;;6.55;1.40;;;9.40;99.90;;;;;;5027676;28;20557;-66
2023/03/31 05:35:26;;;;;;;4.13;1.35;;;9.40;99.90;;;;;;5006662;28;20045;-64
2023/03/31 05:37:52;;;;;;;4.68;0.88;;;9.40;99.90;;;;;;5030510;28;20364;-65
2023/03/31 05:40:17;;;;;;;8.27;1.88;;;9.40;99.90;;;;;;5032507;28;20021;-66
2023/03/31 05:42:43;;;;;;;5.78;0.93;;;9.40;99.90;;;;;;5021980;28;20073;-66
2023/03/31 05:45:09;;;;;;;4.10;0.80;;;9.50;99.90;;;;;;5029470;28;20391;-66
2023/03/31 05:47:35;;;;;;;5.45;1.55;;;9.50;99.90;;;;;;5029646;28;20410;-66
2023/03/31 05:50:02;;;;;;;4.93;1.00;;;9.50;99.90;;;;;;5029176;28;20070;-63
2023/03/31 05:52:28;;;;;;;2.55;0.75;;;9.50;99.90;;;;;;5030635;28;20045;-64
2023/03/31 05:54:54;;;;;;;5.20;1.10;;;9.50;99.90;;;;;;5028834;28;20077;-64
2023/03/31 05:57:19;;;;;;;8.50;1.08;;;9.60;99.90;;;;;;5028996;28;20030;-63
2023/03/31 05:59:45;;;;;;;5.65;1.20;;;9.60;99.90;;;;;;5027932;28;20029;-62
2023/03/31 06:02:14;;;;;;;3.30;1.05;;;9.60;99.90;;;;;;5028831;28;20056;-63
2023/03/31 06:04:40;;;;;;;2.92;1.25;;;9.60;99.90;;;;;;5026927;28;20041;-63
2023/03/31 06:07:07;;;;;;;5.38;0.70;;;9.60;99.90;;;;;;5005048;28;20379;-64
2023/03/31 06:09:32;;;;;;;4.55;1.25;;;9.60;99.90;;;;;;5029698;28;20029;-63
2023/03/31 06:11:58;;;;;;;5.07;0.70;;;9.60;99.90;;;;;;5029442;28;20041;-63
2023/03/31 06:14:24;;;;;;;3.30;0.50;;;9.60;99.90;;;;;;5025108;28;20037;-63
2023/03/31 06:16:49;;;;;;;3.92;0.65;;;9.70;99.90;;;;;;5026505;28;20112;-63
2023/03/31 06:19:15;;;;;;;1.95;0.50;;;9.70;99.90;;;;;;5027777;28;20070;-64
2023/03/31 06:21:41;;;;;;;4.53;1.10;;;9.70;99.90;;;;;;5029471;28;20152;-64
2023/03/31 06:24:08;;;;;;;2.22;0.80;;;9.80;99.90;;;;;;5031004;28;20088;-64
2023/03/31 06:26:33;;;;;;;1.25;0.50;;;9.70;99.90;;;;;;5031638;28;20021;-64
2023/03/31 06:28:59;;;;;;;1.42;0.47;;;9.70;99.90;;;;;;5029731;28;20028;-64
2023/03/31 06:31:25;;;;;;;0.22;0.22;;;9.70;99.90;;;;;;5029701;28;20025;-64
2023/03/31 06:33:51;;;;;;;1.23;0.75;;;9.70;99.90;;;;;;5029417;28;20204;-64
2023/03/31 06:36:19;;;;;;;1.85;0.77;;;9.70;99.90;;;;;;5008014;28;20042;-65
2023/03/31 06:38:45;;;;;;;5.38;0.73;;;9.70;99.90;;;;;;5031565;28;20025;-64
2023/03/31 06:41:13;;;;;;;0.70;0.60;;;9.70;99.90;;;;;;5028540;28;20030;-64
2023/03/31 06:43:39;;;;;;;0.40;0.40;;;9.80;99.90;;;;;;5025604;28;20116;-63
2023/03/31 06:46:05;;;;;;;0.30;0.30;;;9.90;99.90;;;;;;5028546;28;20083;-64
2023/03/31 06:48:31;;;;;;;1.60;0.40;;;9.90;99.90;;;;;;5027015;28;20026;-61
2023/03/31 06:51:00;;;;;;;3.67;0.50;;;9.90;99.90;;;;;;5028921;28;20025;-63
2023/03/31 06:53:26;;;;;;;2.25;0.60;;;9.90;99.90;;;;;;5031033;28;20033;-64
2023/03/31 06:55:51;;;;;;;2.40;0.43;;;9.90;99.90;;;;;;5030293;28;20912;-67
2023/03/31 06:58:17;;;;;;;1.73;0.60;;;9.90;99.90;;;;;;5023859;28;20040;-64
2023/03/31 07:00:44;;;;;;;0.85;0.40;;;9.90;99.90;;;;;;5028390;28;20037;-63
2023/03/31 07:03:11;;;;;;;1.35;0.50;;;9.90;99.90;;;;;;5028758;28;20113;-64
2023/03/31 07:05:36;;;;;;;0.85;0.40;;;9.90;99.90;;;;;;5030816;28;20029;-64
2023/03/31 07:08:02;;;;;;;2.30;0.60;;;9.90;99.90;;;;;;5015448;28;20537;-64
2023/03/31 07:10:30;;;;;;;2.80;0.70;;;9.90;99.90;;;;;;5031269;28;20068;-64
2023/03/31 07:12:56;;;;;;;1.05;0.45;;;9.90;99.90;;;;;;5028894;28;20033;-64
2023/03/31 07:15:22;;;;;;;1.38;0.68;;;10.00;99.90;;;;;;5029578;28;20037;-63
2023/03/31 07:17:49;;;;;;;1.45;0.70;;;10.10;99.90;;;;;;5024379;28;20049;-64
2023/03/31 07:20:17;;;;;;;1.40;0.63;;;10.20;99.90;;;;;;5028767;28;20450;-62
2023/03/31 07:22:47;;;;;;;1.35;0.65;;;10.40;99.90;;;;;;5028573;28;20021;-63
2023/03/31 07:25:16;;;;;;;1.58;0.70;;;10.60;99.90;;;;;;5029851;28;20376;-64
2023/03/31 07:27:42;;;;;;;3.25;0.80;;;10.80;99.90;;;;;;5027161;28;20065;-64
2023/03/31 07:30:13;;;;;;;3.10;1.02;;;10.90;99.90;;;;;;5023707;28;20117;-64
2023/03/31 07:32:40;;;;;;;0.95;0.85;;;10.90;99.90;;;;;;5023865;28;20388;-63
2023/03/31 07:35:10;;;;;;;3.50;0.93;;;11.10;99.90;;;;;;5025861;28;20029;-63
2023/03/31 07:37:41;;;;;;;4.80;1.35;;;11.10;99.90;;;;;;5008604;28;20068;-63
2023/03/31 07:40:09;;;;;;;3.60;0.80;;;11.20;99.90;;;;;;5025534;28;20028;-64
2023/03/31 07:42:35;;;;;;;2.83;0.77;;;11.20;99.90;;;;;;5027102;28;20071;-64
2023/03/31 07:45:01;;;;;;;2.53;1.00;;;11.30;99.90;;;;;;5033100;28;20029;-65
2023/03/31 07:47:27;;;;;;;1.35;0.77;;;11.40;99.90;;;;;;5028092;28;20100;-63
2023/03/31 07:49:53;;;;;;;1.27;0.60;;;11.50;99.90;;;;;;5022911;28;20033;-64
2023/03/31 07:52:19;;;;;;;2.03;0.80;;;11.60;99.90;;;;;;5027390;28;20021;-64
2023/03/31 07:54:45;;;;;;;1.05;0.88;;;11.50;99.90;;;;;;5028635;28;20029;-64
2023/03/31 07:57:11;;;;;;;2.25;1.00;;;11.70;99.90;;;;;;5024083;28;20498;-64
2023/03/31 07:59:37;;;;;;;1.85;0.80;;;11.90;99.90;;;;;;5025759;28;20037;-63
2023/03/31 08:02:03;;;;;;;3.38;0.80;;;12.20;99.90;;;;;;5027574;28;20025;-63
2023/03/31 08:04:28;;;;;;;1.42;0.80;;;12.60;99.90;;;;;;5029152;28;20029;-63
2023/03/31 08:06:54;;;;;;;0.50;0.50;;;12.80;99.90;;;;;;5030696;28;20053;-63
2023/03/31 08:09:21;;;;;;;2.40;1.10;;;13.00;99.90;;;;;;5025640;28;20110;-64
2023/03/31 08:11:47;;;;;;;1.20;0.80;;;13.00;99.90;;;;;;5029392;28;20046;-63
2023/03/31 08:14:13;;;;;;;3.60;0.85;;;12.90;99.90;;;;;;5023168;28;20029;-63
2023/03/31 08:16:39;;;;;;;2.08;0.93;;;13.10;99.90;;;;;;5026257;28;20164;-63
2023/03/31 08:19:05;;;;;;;3.00;0.93;;;13.30;99.90;;;;;;5024556;28;20100;-64
2023/03/31 08:21:31;;;;;;;4.43;1.00;;;13.60;99.90;;;;;;5026147;28;20018;-63
2023/03/31 08:23:57;;;;;;;1.65;0.98;;;13.70;99.90;;;;;;5033426;28;20041;-63
2023/03/31 08:26:24;;;;;;;1.73;1.05;;;13.80;99.90;;;;;;5033549;28;20398;-63
2023/03/31 08:28:51;;;;;;;3.42;0.95;;;13.90;99.90;;;;;;5032502;28;20037;-64
2023/03/31 08:31:22;;;;;;;1.60;0.90;;;14.20;99.90;;;;;;5022630;28;20450;-63
2023/03/31 08:33:48;;;;;;;1.45;0.70;;;14.30;99.90;;;;;;5023062;28;20030;-63
2023/03/31 08:36:14;;;;;;;1.50;0.43;;;15.20;99.90;;;;;;5007175;28;20038;-62
2023/03/31 08:38:44;;;;;;;4.93;0.73;;;16.20;99.90;;;;;;5028597;28;20026;-63
2023/03/31 08:41:37;;;;;;;4.00;0.90;;;16.30;99.90;;;;;;5023129;28;20130;-64
2023/03/31 08:44:15;;;;;;;1.90;0.60;;;16.60;99.90;;;;;;5024590;28;20041;-64
2023/03/31 08:46:42;;;;;;;2.55;1.15;;;16.30;99.90;;;;;;5027473;28;20030;-64
2023/03/31 08:49:15;;;;;;;3.53;0.95;;;15.80;99.90;;;;;;5027362;28;20496;-63
2023/03/31 08:51:46;;;;;;;3.20;0.90;;;15.30;99.90;;;;;;5028738;28;20560;-63
2023/03/31 08:54:30;;;;;;;2.90;0.90;;;14.80;99.90;;;;;;5028786;28;20398;-64
2023/03/31 08:56:56;;;;;;;2.63;1.05;;;14.60;99.90;;;;;;5024997;28;20053;-64
2023/03/31 08:59:30;;;;;;;3.55;1.42;;;14.40;99.90;;;;;;5026663;28;20037;-64
2023/03/31 09:02:01;;;;;;;1.88;0.93;;;14.30;99.90;;;;;;5026541;28;20032;-64
2023/03/31 09:04:50;;;;;;;1.10;0.70;;;14.10;99.90;;;;;;5026924;28;20055;-63
2023/03/31 09:07:50;;;;;;;2.38;0.93;;;14.10;99.90;;;;;;5004841;28;20044;-63
2023/03/31 09:10:19;;;;;;;8.30;1.67;;;14.10;99.90;;;;;;5063589;23;20084;-66
2023/03/31 09:13:05;;;;;;;5.35;1.08;;;14.60;99.90;;;;;;5049502;28;20044;-66
2023/03/31 09:15:50;;;;;;;7.63;1.25;;;14.90;99.90;;;;;;5047004;28;20029;-67
2023/03/31 09:18:22;;;;;;;4.78;1.45;;;14.90;99.90;;;;;;5045354;28;20018;-65
2023/03/31 09:20:51;;;;;;;5.97;1.20;;;15.10;99.90;;;;;;5052434;28;20021;-66
2023/03/31 09:23:28;;;;;;;4.32;1.05;;;15.10;99.90;;;;;;5049375;28;20054;-65
2023/03/31 09:25:56;;;;;;;4.55;1.38;;;14.60;99.90;;;;;;5048542;28;20102;-66
2023/03/31 09:28:28;;;;;;;4.50;1.00;;;14.80;99.90;;;;;;5052838;28;20031;-65
2023/03/31 09:30:55;;;;;;;7.72;1.40;;;14.80;99.90;;;;;;5051922;28;20385;-66
2023/03/31 09:33:32;;;;;;;5.03;1.35;;;14.60;99.90;;;;;;5049390;28;20104;-66
2023/03/31 09:35:58;;;;;;;12.32;5.85;;;14.50;99.90;;;;;;5053134;28;20028;-65
2023/03/31 09:38:28;;;;;;;10.40;4.30;;;14.70;99.90;;;;;;5024847;28;20099;-66
2023/03/31 09:40:57;;;;;;;10.43;3.95;;;15.00;99.90;;;;;;5047890;28;20036;-66
2023/03/31 09:43:28;;;;;;;4.20;1.30;;;15.50;99.90;;;;;;5047944;28;20490;-65
2023/03/31 09:45:55;;;;;;;6.60;1.70;;;15.60;99.90;;;;;;5047508;28;20478;-65
2023/03/31 09:48:29;;;;;;;5.05;1.55;;;15.60;99.90;;;;;;5051156;28;20440;-66
2023/03/31 09:50:59;;;;;;;9.05;1.38;;;15.70;99.90;;;;;;5051263;28;20532;-65
2023/03/31 09:53:40;;;;;;;9.38;1.67;;;15.30;99.90;;;;;;5048019;28;20035;-66
2023/03/31 09:56:07;;;;;;;5.60;2.13;;;15.10;99.90;;;;;;5048272;28;20044;-66
2023/03/31 09:58:41;;;;;;;11.00;2.00;;;15.00;99.90;;;;;;5051325;28;20513;-65
2023/03/31 10:01:09;;;;;;;12.40;3.42;;;14.80;99.90;;;;;;5046648;28;20397;-65
2023/03/31 10:03:46;;;;;;;4.93;2.22;;;14.80;99.90;;;;;;5049974;28;20031;-66
2023/03/31 10:06:14;;;;;;;6.00;2.40;;;14.80;99.90;;;;;;5025750;28;20017;-65
2023/03/31 10:09:00;;;;;;;6.05;1.60;;;14.70;99.90;;;;;;5048551;28;20025;-66
2023/03/31 10:11:26;;;;;;;13.30;4.22;;;14.80;99.90;;;;;;5041675;28;20036;-66
2023/03/31 10:14:05;;;;;;;7.05;1.65;;;15.20;99.90;;;;;;5050117;28;20040;-66
2023/03/31 10:16:46;;;;;;;6.97;1.67;;;15.40;99.90;;;;;;5049159;28;20112;-66
2023/03/31 10:19:25;;;;;;;8.75;1.65;;;15.80;99.90;;;;;;5050355;28;20025;-65
2023/03/31 10:22:24;;;;;;;9.55;1.77;;;16.40;99.90;;;;;;5047393;28;20029;-66
2023/03/31 10:24:51;;;;;;;6.93;1.88;;;16.70;99.90;;;;;;5046712;28;20120;-65
2023/03/31 10:27:29;;;;;;;5.78;1.42;;;16.70;99.90;;;;;;5048271;28;20398;-66
2023/03/31 10:30:12;;;;;;;6.22;1.50;;;16.50;99.90;;;;;;5045437;28;20376;-66
2023/03/31 10:32:41;;;;;;;4.47;2.20;;;15.80;99.90;;;;;;5049015;28;20025;-66
2023/03/31 10:35:31;;;;;;;7.22;1.90;;;15.60;99.90;;;;;;5049453;28;20037;-66
2023/03/31 10:38:02;;;;;;;6.53;1.80;;;15.30;99.90;;;;;;5050449;28;20120;-66
2023/03/31 10:40:31;;;;;;;10.27;3.50;;;15.10;99.90;;;;;;5023586;28;20076;-66
2023/03/31 10:43:19;;;;;;;10.40;2.83;;;15.10;99.90;;;;;;5045297;28;20532;-65
2023/03/31 10:45:56;;;;;;;11.63;2.67;;;15.00;99.90;;;;;;5046422;28;20055;-66
2023/03/31 10:48:30;;;;;;;10.77;2.67;;;14.80;99.90;;;;;;5045556;28;20087;-66
2023/03/31 10:51:05;;;;;;;6.85;2.13;;;15.00;99.90;;;;;;5037460;28;20537;-66
2023/03/31 10:53:44;;;;;;;14.18;4.18;;;15.00;99.90;;;;;;5043135;28;20032;-66
2023/03/31 10:56:16;;;;;;;21.65;7.88;;;15.00;99.90;;;;;;5049875;28;20071;-66
2023/03/31 10:58:52;;;;;;;8.57;1.77;;;15.10;99.90;;;;;;5048610;28;20021;-65
2023/03/31 11:01:33;;;;;;;56.65;20.40;;;14.80;99.90;;;;;;5041510;28;20029;-65
2023/03/31 11:04:23;;;;;;;19.60;6.60;;;14.90;99.90;;;;;;5040261;28;20656;-66
2023/03/31 11:07:12;;;;;;;16.58;6.32;;;15.10;99.90;;;;;;5020805;28;20101;-66
2023/03/31 11:09:56;;;;;;;19.30;7.93;;;14.80;99.90;;;;;;5044882;28;20043;-66
2023/03/31 11:12:46;;;;;;;11.68;4.70;;;14.50;99.90;;;;;;5048942;28;20086;-65
2023/03/31 11:15:17;;;;;;;14.10;5.35;;;14.40;99.90;;;;;;5046516;28;20052;-65
2023/03/31 11:17:58;;;;;;;9.93;4.03;;;14.30;99.90;;;;;;5041752;28;20036;-66
2023/03/31 11:20:35;;;;;;;29.50;10.05;;;14.30;99.90;;;;;;5040703;28;20057;-66
2023/03/31 11:23:07;;;;;;;12.38;3.97;;;14.40;99.90;;;;;;5047650;28;20029;-66
2023/03/31 11:25:46;;;;;;;5.07;1.80;;;14.30;99.90;;;;;;5047674;28;20028;-66
2023/03/31 11:28:49;;;;;;;4.18;1.80;;;14.40;99.90;;;;;;5046584;28;20513;-66
2023/03/31 11:31:21;;;;;;;14.77;5.80;;;14.30;99.90;;;;;;5043991;28;20037;-66
2023/03/31 11:33:49;;;;;;;10.23;4.03;;;13.90;99.90;;;;;;5036503;28;20070;-66
2023/03/31 11:36:40;;;;;;;9.38;2.65;;;13.90;99.90;;;;;;5045611;28;20478;-66
2023/03/31 11:39:53;;;;;;;5.72;2.13;;;13.60;99.90;;;;;;5017038;28;20017;-65
2023/03/31 11:42:50;;;;;;;9.07;3.28;;;13.70;99.90;;;;;;5005620;28;20044;-65
2023/03/31 11:45:40;;;;;;;6.65;2.00;;;13.90;99.90;;;;;;5026878;28;20493;-66
2023/03/31 11:48:21;;;;;;;4.15;1.80;;;14.10;99.90;;;;;;5041901;28;20017;-66
2023/03/31 11:50:48;;;;;;;7.07;1.80;;;14.50;99.90;;;;;;5046519;28;20028;-65
2023/03/31 11:53:17;;;;;;;5.47;1.42;;;14.60;99.90;;;;;;5047648;28;20371;-66
2023/03/31 11:55:45;;;;;;;4.45;1.63;;;14.90;99.90;;;;;;5043761;28;20037;-66
2023/03/31 11:58:16;;;;;;;6.82;1.85;;;15.00;99.90;;;;;;5041976;28;20032;-65
2023/03/31 12:01:10;;;;;;;7.78;3.13;;;15.00;99.90;;;;;;5036065;28;20033;-66
2023/03/31 12:03:49;;;;;;;5.40;2.08;;;15.00;99.90;;;;;;5035506;28;20096;-66
2023/03/31 12:06:19;;;;;;;5.18;1.98;;;15.00;99.90;;;;;;5020675;28;20565;-66
2023/03/31 12:08:53;;;;;;;6.93;2.25;;;15.00;99.90;;;;;;5041343;28;20028;-66
2023/03/31 12:11:27;;;;;;;6.13;1.48;;;15.10;99.90;;;;;;5043091;28;20108;-66
2023/03/31 12:14:07;;;;;;;7.93;3.05;;;14.90;99.90;;;;;;5044083;28;20051;-66
2023/03/31 12:16:46;;;;;;;6.90;2.30;;;15.00;99.90;;;;;;5031946;28;20470;-66
2023/03/31 12:19:29;;;;;;;5.22;2.33;;;15.00;99.90;;;;;;5038208;28;20025;-65
2023/03/31 12:22:07;;;;;;;12.57;3.50;;;15.10;99.90;;;;;;5041815;28;20040;-66
2023/03/31 12:24:33;;;;;;;9.95;1.33;;;15.00;99.90;;;;;;5044355;28;20102;-65
2023/03/31 12:27:11;;;;;;;5.00;1.20;;;15.10;99.90;;;;;;5047767;28;20433;-65
2023/03/31 12:29:47;;;;;;;5.78;2.10;;;15.00;99.90;;;;;;5041067;28;20049;-66
2023/03/31 12:32:20;;;;;;;6.18;2.38;;;14.90;99.90;;;;;;5041998;28;20082;-66
2023/03/31 12:35:16;;;;;;;6.13;1.60;;;14.70;99.90;;;;;;5050826;28;20036;-66
2023/03/31 12:38:04;;;;;;;5.88;2.83;;;14.70;99.90;;;;;;5041516;28;20482;-65
2023/03/31 12:40:48;;;;;;;7.85;2.63;;;14.90;99.90;;;;;;5021380;28;20526;-65
2023/03/31 12:43:44;;;;;;;5.65;2.13;;;14.80;99.90;;;;;;5035773;28;20021;-66
2023/03/31 12:46:27;;;;;;;5.40;1.48;;;14.90;99.90;;;;;;5045495;28;20025;-65
2023/03/31 12:49:15;;;;;;;14.20;4.00;;;15.10;99.90;;;;;;5045205;28;20033;-66
2023/03/31 12:51:53;;;;;;;8.88;1.90;;;15.30;99.90;;;;;;5045767;28;20111;-66
2023/03/31 12:54:42;;;;;;;11.60;3.30;;;15.10;99.90;;;;;;5050600;28;20029;-66
2023/03/31 12:57:08;;;;;;;7.45;2.63;;;15.10;99.90;;;;;;5047798;28;20021;-65
2023/03/31 12:59:36;;;;;;;5.93;2.42;;;15.40;99.90;;;;;;5050116;28;20028;-65
2023/03/31 13:02:18;;;;;;;4.93;2.17;;;15.30;99.90;;;;;;5052568;28;20029;-66
2023/03/31 13:04:44;;;;;;;5.47;1.77;;;15.40;99.90;;;;;;5044945;28;20040;-66
2023/03/31 13:07:38;;;;;;;4.75;2.33;;;15.40;99.90;;;;;;5027296;28;20041;-66
2023/03/31 13:10:12;;;;;;;3.30;1.13;;;15.60;99.90;;;;;;5049396;28;20040;-66
2023/03/31 13:12:38;;;;;;;5.50;2.35;;;15.70;99.90;;;;;;5047727;28;20036;-67
2023/03/31 13:15:12;;;;;;;4.35;1.40;;;15.80;99.90;;;;;;5048774;28;20025;-66
2023/03/31 13:17:38;;;;;;;2.55;0.77;;;15.70;99.90;;;;;;5049693;28;20025;-66